x

9439040 - Astoria, Or (asto3) Weather Station

2:54 - Mon 22nd Dec 2014 All times are PST. -8 hours from GMT.

  • Wind
    5mph, 7mph gusts
  • Sea Temp 47°f
  • Ar Temp 50°f
  • Sea Pressure 1025mb
  • 9439040 - Astoria, Or
  • 9439040 - Astoria, Or

More Historic Weather Station data

Upgrade to MSW Pro to gain access to the past 30 days of data for over 8000 Wavebouys and Weather Stations around the globe.

Join Pro

Comparision Forecast

View Surf forecast
   
Seg 12/22 2:54 5 7 mph 1025mb 47f 50f
2:48 3 5 mph 1025mb 47f 50f
2:42 2 3 mph 1024.9mb 47f 50f
2:36 2 5 mph 1024.8mb 47f 49f
2:30 3 5 mph 1024.8mb 47f 49f
2:24 3 5 mph 1024.6mb 47f 50f
2:18  -  2 mph 1024.1mb 47f 50f
2:12 1 2 mph 1023.8mb 47f 49f
2:06 1 2 mph 1023.5mb 47f 49f
2:00 1 3 mph 1023.5mb 47f 49f
1:54 2 5 mph 1023.5mb 47f 50f
1:48 1 5 mph 1023.5mb 47f 50f
1:42 3 6 mph 1023.3mb 47f 50f
1:36 5 6 mph 1023.2mb 47f 50f
1:30 5 6 mph 1023.3mb 47f 50f
1:24 2 5 mph 1023.5mb 47f 50f
1:18 1 2 mph 1023.5mb 47f 50f
1:12  -  2 mph 1023.4mb 47f 50f
1:06  -  1 mph 1023.3mb 47f 50f
1:00  -  2 mph 1023.3mb 47f 50f
12:54 1 2 mph 1023.4mb 47f 50f
12:48 2 3 mph 1023.4mb 47f 50f
12:42 1 5 mph 1023.2mb 47f 50f
12:36 3 6 mph 1023.1mb 47f 50f
12:30 5 6 mph 1023.1mb 47f 50f
12:24 3 5 mph 1023.1mb 47f 50f
12:18 1 3 mph 1023.3mb 47f 50f
12:12 1 5 mph 1023.2mb 47f 50f
12:06 3 5 mph 1023.2mb 47f 50f
12:00 3 5 mph 1023mb 47f 50f
Dom 12/21 11:54 5 7 mph 1023.1mb 47f 49f
11:48 3 6 mph 1023.2mb 47f 49f
11:42 3 6 mph 1023mb 47f 49f
11:36  -  5 mph 1022.8mb 47f 49f
11:30 2 10 mph 1022.8mb 47f 49f
11:24 7 10 mph 1022.7mb 47f 50f
11:18 8 15 mph 1022.6mb 47f 49f
11:12 13 20 mph 1022.5mb 47f 50f
11:06 13 16 mph 1022.5mb 47f 51f
11:00 7 11 mph 1022.3mb 47f 50f
10:54 8 13 mph 1022.3mb 47f 49f
10:48 1 2 mph 1022.3mb 47f 50f
10:42 2 3 mph 1022.2mb 47f 50f
10:36  -  2 mph 1022.1mb 47f 50f
10:30 1 6 mph 1022mb 47f 50f
10:24 3 6 mph 1021.7mb 47f 51f
10:18 5 7 mph 1021.8mb 47f 51f
10:12 3 7 mph 1021.9mb 47f 52f
10:06 3 7 mph 1021.8mb 47f 52f
10:00 3 6 mph 1021.7mb 47f 51f
9:54 3 6 mph 1021.4mb 47f 51f
9:48 3 6 mph 1021.4mb 47f 51f
9:42 3 6 mph 1021.6mb 47f 51f
9:36  -  3 mph 1021.9mb 47f 51f
9:30 1 3 mph 1021.9mb 47f 51f
9:24  -  7 mph 1021.8mb 47f 52f
9:18 2 8 mph 1021.4mb 47f 52f
9:12 5 10 mph 1021.1mb 47f 52f
9:06 5 7 mph 1020.7mb 47f 52f
9:00 2 7 mph 1021.1mb 47f 52f
8:54 1 6 mph 1021.4mb 47f 52f
8:48 5 11 mph 1021.4mb 47f 52f
8:42 8 11 mph 1021.2mb 47f 52f
8:36 5 7 mph 1021.2mb 47f 52f
8:30 5 8 mph 1021.3mb 47f 52f
8:24 2 8 mph 1021.4mb 47f 52f
8:18 5 10 mph 1021.3mb 47f 51f
8:12 2 5 mph 1021.1mb 47f 52f
8:06 1 5 mph 1021.1mb 47f 51f
7:54 3 8 mph 1020.7mb 47f 52f
7:48 5 7 mph 1020.5mb 47f 52f
7:42 6 9 mph 1020.5mb 47f 52f
7:36 5 9 mph 1020.6mb 47f 52f
7:30 7 10 mph 1020.8mb 47f 52f
7:24 5 6 mph 1020.8mb 47f 52f
7:18  -  6 mph 1020.7mb 47f 52f
7:12 5 8 mph 1020.9mb 47f 52f
7:06 2 3 mph 1020.8mb 47f 52f
7:00 2 3 mph 1021mb 47f 52f
6:54  -  3 mph 1021.1mb 47f 52f
6:48 1 5 mph 1021.1mb 47f 52f
6:42 2 6 mph 1021.2mb 47f 52f
6:36 2 7 mph 1021.3mb 47f 52f
6:30 3 6 mph 1021.3mb 47f 52f
6:24 3 6 mph 1021.3mb 47f 52f
6:18 3 8 mph 1021.2mb 47f 52f
6:12 6 9 mph 1021mb 47f 52f
6:06 6 8 mph 1020.8mb 47f 52f
6:00 6 8 mph 1020.6mb 47f 52f
5:54 6 10 mph 1020.8mb 47f 52f
5:48 7 11 mph 1020.8mb 47f 52f
5:42 7 11 mph 1020.7mb 47f 52f
5:36 7 10 mph 1020.8mb 47f 52f
5:30 7 9 mph 1020.8mb 47f 52f
5:24 7 11 mph 1020.9mb 47f 52f
5:18 7 10 mph 1020.8mb 47f 52f
5:12 8 13 mph 1020.4mb 47f 53f
5:00 7 10 mph 1020.2mb 47f 52f
4:54 3 9 mph 1020.3mb 47f 52f
4:48 7 9 mph 1020.5mb 47f 52f
4:42 5 8 mph 1020.9mb 47f 52f
4:36 5 7 mph 1020.6mb 47f 52f
4:30 3 9 mph 1020.4mb 47f 52f
4:24 6 9 mph 1020.4mb 47f 52f
4:18 6 10 mph 1020.5mb 47f 52f
4:12 8 10 mph 1020.1mb 47f 53f
4:06 5 8 mph 1020mb 47f 53f
4:00 6 10 mph 1020.1mb 47f 53f
3:54 7 9 mph 1019.8mb 47f 53f
3:48 6 9 mph 1019.8mb 47f 52f
3:42 6 8 mph 1019.7mb 47f 53f
3:36 6 9 mph 1019.7mb 47f 52f
3:30 6 8 mph 1019.7mb 47f 52f
3:24 5 7 mph 1019.7mb 47f 52f
3:18 3 6 mph 1019.8mb 47f 52f
3:12 5 7 mph 1019.8mb 47f 52f
3:06 3 8 mph 1019.8mb 47f 52f
3:00 3 6 mph 1019.6mb 47f 52f
2:54 5 7 mph 1019.1mb 47f 52f
2:48 5 9 mph 1019.5mb 47f 52f
2:42 5 8 mph 1019.5mb 47f 52f
2:36 3 7 mph 1019.1mb 47f 52f
2:30 6 9 mph 1018.8mb 47f 52f
2:24 3 8 mph 1018.7mb 47f 52f
2:18 2 7 mph 1019mb 47f 53f
2:06 5 9 mph 1019.2mb 47f 52f
2:00 5 7 mph 1018.9mb 47f 52f
1:54 3 6 mph 1018.9mb 47f 52f
1:48 5 8 mph 1019.2mb 47f 53f
1:42 2 8 mph 1019mb 47f 53f
1:36 3 9 mph 1018.8mb 47f 53f
1:30 5 11 mph 1018.7mb 47f 53f
1:24 2 10 mph 1018.5mb 47f 53f
1:18 3 7 mph 1018.9mb 47f 53f
1:12 3 9 mph 1018.9mb 47f 53f
1:06 2 8 mph 1018.8mb 47f 53f
1:00 6 10 mph 1018.6mb 47f 53f
12:54 7 11 mph 1017.5mb 47f 53f
12:48 6 13 mph 1017.9mb 47f 53f
12:42 9 15 mph 1018.2mb 47f 53f
12:36 8 14 mph 1017.9mb 47f 53f
12:30 8 13 mph 1018.1mb 47f 53f
12:24 7 13 mph 1018.6mb 47f 53f
12:18 7 13 mph 1018.7mb 47f 53f
12:12 9 14 mph 1018.5mb 47f 53f
12:06 9 13 mph 1018.5mb 47f 53f
12:00 8 16 mph 1018.3mb 46f 53f
11:54 9 13 mph 1018.1mb 46f 53f
11:48 8 13 mph 1018mb 46f 53f
11:42 9 14 mph 1018.2mb 46f 53f
11:36 9 14 mph 1018mb 46f 53f
11:30 8 11 mph 1018mb 47f 53f
11:24 10 15 mph 1017.8mb 47f 53f
11:18 10 17 mph 1017.9mb 47f 54f
11:12 9 15 mph 1017.7mb 46f 53f
11:06 10 17 mph 1017.8mb 46f 54f
11:00 13 16 mph 1017.8mb 46f 53f
10:54 10 15 mph 1017.8mb 47f 53f
10:48 8 14 mph 1017.9mb 47f 53f
10:42 8 14 mph 1018.1mb 47f 53f
10:36 8 13 mph 1018mb 47f 53f
10:30 9 16 mph 1017.6mb 47f 54f
10:24 10 14 mph 1017.4mb 47f 53f
10:18 8 13 mph 1017.5mb 47f 54f
10:12 11 15 mph 1017.7mb 47f 54f
10:06 11 16 mph 1017.9mb 47f 54f
10:00 13 16 mph 1017.4mb 47f 54f
9:54 11 17 mph 1017.3mb 47f 54f
9:48 10 14 mph 1016.9mb 47f 54f
9:42 10 13 mph 1016.8mb 47f 54f
9:36 8 13 mph 1017.6mb 47f 53f
9:30 7 11 mph 1017.6mb 47f 53f
9:24 9 15 mph 1017.7mb 47f 53f
9:12 10 15 mph 1016.9mb 47f 53f
9:06 10 15 mph 1017mb 47f 53f
9:00 13 20 mph 1016.5mb 47f 54f
8:54 10 16 mph 1016.4mb 47f 53f
8:48 11 16 mph 1016.2mb 47f 53f
8:42 15 20 mph 1016mb 47f 54f
8:36 13 16 mph 1015.8mb 47f 53f
8:30 11 16 mph 1015.9mb 47f 54f
8:24 11 16 mph 1015.6mb 47f 54f
8:18 10 16 mph 1015.5mb 47f 53f
8:12 9 16 mph 1015.4mb 47f 53f
8:00 13 16 mph 1015.1mb 47f 53f
7:48 9 14 mph 1015.1mb 47f 53f
7:42 9 15 mph 1015.2mb 47f 53f
7:36 8 13 mph 1015mb 47f 52f
7:30 8 16 mph 1015.1mb 47f 53f
7:24 9 15 mph 1014.9mb 47f 53f
7:18 11 15 mph 1014.3mb 47f 53f
7:12 10 16 mph 1014mb 47f 53f
7:06 10 15 mph 1013.9mb 47f 53f
7:00 11 16 mph 1013.8mb 47f 54f
6:54 10 15 mph 1014mb 47f 53f
6:48 11 17 mph 1014.3mb 47f 53f
6:36 7 14 mph 1014.2mb 47f 53f
6:30 10 17 mph 1014mb 47f 53f
6:24 9 17 mph 1013.8mb 47f 53f
6:18 10 16 mph 1013.8mb 47f 53f
6:12 10 17 mph 1014.1mb 47f 53f
6:06 11 21 mph 1013.4mb 47f 53f
6:00 11 17 mph 1013.3mb 47f 53f
5:54 11 18 mph 1013.2mb 47f 53f
5:48 11 21 mph 1013.1mb 47f 54f
5:42 14 20 mph 1012.9mb 47f 54f
5:36 14 20 mph 1013.2mb 47f 54f
5:30 15 22 mph 1013.2mb 47f 54f
5:24 13 20 mph 1013mb 47f 53f
5:18 16 22 mph 1012.8mb 47f 54f
5:12 15 21 mph 1012.8mb 47f 54f
5:06 14 18 mph 1012.6mb 47f 54f
5:00 13 20 mph 1012.6mb 47f 53f
4:54 10 18 mph 1012.4mb 47f 54f
4:48 15 18 mph 1012.3mb 47f 54f
4:42 10 16 mph 1012.2mb 47f 53f
4:36 7 13 mph 1012.4mb 47f 53f
4:30 8 17 mph 1012.5mb 47f 53f
4:24 11 15 mph 1012.2mb 47f 53f
4:18 10 20 mph 1012.1mb 47f 53f
4:12 13 20 mph 1012.2mb 47f 54f
4:06 3 13 mph 1012.5mb 47f 53f
4:00 3 9 mph 1012.4mb 47f 53f
3:54 5 9 mph 1012.2mb 47f 53f
3:48 5 14 mph 1012.2mb 47f 53f
3:42 6 14 mph 1012mb 47f 53f
3:30 8 14 mph 1012.2mb 47f 53f
3:24 7 13 mph 1012mb 47f 53f
3:18 7 13 mph 1011.6mb 47f 53f
3:12 7 15 mph 1011.8mb 47f 53f
3:06 6 13 mph 1011.6mb 47f 53f
3:00 3 10 mph 1011.7mb 47f 54f
2:54 3 13 mph 1011.5mb 47f 54f
2:48 3 13 mph 1011.1mb 47f 53f
2:42 6 15 mph 1010.6mb 47f 54f
2:36 8 14 mph 1010.5mb 47f 53f
2:30 5 11 mph 1011.1mb 47f 53f
2:24 5 10 mph 1011.4mb 47f 53f
2:18 2 11 mph 1011.4mb 47f 53f
2:12 5 16 mph 1010.6mb 47f 54f
2:06 7 13 mph 1010.4mb 47f 54f
2:00 7 14 mph 1010.4mb 47f 54f
1:54 7 14 mph 1010.3mb 47f 54f
1:48 5 13 mph 1009.9mb 47f 53f
1:42 5 10 mph 1009.7mb 47f 53f
1:36 5 15 mph 1009.9mb 47f 53f
1:30 6 18 mph 1010mb 47f 54f
1:24 9 16 mph 1009.8mb 47f 54f
1:18 5 13 mph 1009.4mb 47f 53f
1:12 3 8 mph 1008.9mb 47f 53f
1:06 6 10 mph 1008.5mb 47f 53f
1:00 6 26 mph 1008.8mb 47f 53f
12:54 13 20 mph 1008.9mb 47f 53f
12:48 6 15 mph 1009.5mb 47f 53f
12:36 15 28 mph 1009.4mb 47f 54f
12:30 14 24 mph 1008.8mb 47f 55f
12:24 14 21 mph 1008.1mb 47f 54f
12:18 8 23 mph 1007.8mb 47f 54f
12:12 20 29 mph 1007.4mb 47f 55f
12:06 23 31 mph 1007.6mb 47f 55f
12:00 21 28 mph 1007.3mb 47f 55f
Sáb 12/20 11:54 17 25 mph 1006.8mb 47f 55f
11:48 20 29 mph 1006.4mb 47f 55f
11:42 22 28 mph 1006.2mb 47f 55f
11:36 17 30 mph 1006.3mb 47f 55f
11:30 17 31 mph 1006.3mb 47f 55f
11:24 16 26 mph 1006.3mb 47f 55f
11:18 16 28 mph 1006.2mb 47f 55f
11:12 17 24 mph 1006.2mb 47f 55f
11:06 17 25 mph 1006.2mb 47f 55f
11:00 16 26 mph 1005.8mb 47f 55f
10:54 18 28 mph 1005.7mb 47f 55f
10:48 18 29 mph 1006mb 47f 55f
10:42 15 29 mph 1005.7mb - 55f
10:36 16 24 mph 1005.3mb - 55f
10:30 16 23 mph 1005.3mb - 55f
10:24 15 23 mph 1005.2mb 47f 54f
10:18 20 25 mph 1004.5mb 47f 55f
10:12 15 24 mph 1004.4mb 47f 55f
10:06 16 30 mph 1005.3mb 47f 55f
10:00 20 30 mph 1005.6mb 47f 55f
9:54 21 31 mph 1005.4mb 47f 55f
9:48 18 28 mph 1004.5mb 47f 55f
9:42 16 24 mph 1004.2mb 47f 55f
9:36 18 25 mph 1004.2mb 47f 55f
9:30 18 31 mph 1004mb 47f 55f
9:24 17 32 mph 1003.7mb 47f 55f
9:18 20 28 mph 1004.5mb 47f 55f
9:12 21 29 mph 1004.2mb 47f 55f
9:06 20 31 mph 1004.2mb 47f 55f
9:00 22 32 mph 1004.4mb 47f 55f
8:54 20 32 mph 1004.4mb 47f 55f
8:48 18 26 mph 1004.3mb 47f 55f
8:42 20 29 mph 1004.2mb 47f 55f
8:36 18 29 mph 1004.2mb 47f 55f
8:30 17 28 mph 1004.2mb 47f 55f
8:24 18 24 mph 1003.9mb 47f 55f
8:18 20 29 mph 1003.7mb 47f 55f
8:12 25 32 mph 1003.2mb 47f 56f
8:06 22 32 mph 1003.3mb 47f 56f
8:00 28 36 mph 1003.2mb 47f 56f
7:54 23 34 mph 1003.6mb 47f 56f
7:48 26 34 mph 1003.3mb 47f 56f
7:42 21 31 mph 1003.7mb 47f 56f
7:36 24 31 mph 1003.1mb 47f 56f
7:30 20 28 mph 1003mb 47f 56f
7:24 22 30 mph 1003.1mb 47f 56f
7:18 23 33 mph 1003mb 47f 56f
7:12 23 30 mph 1003.4mb 47f 56f
7:06 18 25 mph 1003.4mb 47f 55f
7:00 17 29 mph 1003.4mb 47f 55f
6:54 20 32 mph 1003.2mb 47f 55f
6:48 22 30 mph 1003.1mb 47f 56f
6:42 20 28 mph 1003mb 47f 56f
6:36 20 36 mph 1002.6mb 47f 56f
6:30 22 32 mph 1002.4mb 47f 56f
6:24 22 28 mph 1002.2mb 47f 56f
6:18 21 29 mph 1002.5mb 47f 56f
6:12 21 31 mph 1002.7mb 48f 56f
6:06 18 25 mph 1002.9mb 47f 55f
6:00 18 34 mph 1002.8mb 47f 55f
5:54 18 30 mph 1002.9mb 48f 55f
5:48 22 29 mph 1002.8mb 48f 55f
5:42 23 29 mph 1002.9mb 48f 56f
5:36 22 30 mph 1002.9mb 48f 56f
5:30 18 29 mph 1002.8mb 48f 55f
5:24 22 29 mph 1002.7mb 48f 56f
5:18 20 32 mph 1002.7mb 48f 56f
5:12 24 33 mph 1002.5mb 48f 56f
5:06 20 32 mph 1002.5mb 48f 56f
5:00 22 32 mph 1002.4mb 48f 56f
4:54 18 29 mph 1002.4mb 48f 56f
4:48 22 32 mph 1002.3mb 48f 56f
4:42 26 39 mph 1002.1mb 48f 56f
4:36 21 25 mph 1002.2mb 48f 56f
4:30 21 32 mph 1002mb 47f 56f
4:24 22 32 mph 1001.8mb 47f 56f
4:18 22 32 mph 1001.7mb 47f 56f
4:12 20 29 mph 1001.6mb 47f 56f
4:06 23 30 mph 1001.6mb 47f 56f
4:00 23 34 mph 1001.6mb 47f 57f
3:54 24 34 mph 1001.6mb 47f 56f
3:48 26 34 mph 1001.7mb 47f 56f
3:42 23 37 mph 1001.7mb 47f 56f
3:36 25 34 mph 1001.7mb 47f 56f
3:30 26 43 mph 1001.5mb 47f 56f
3:24 25 34 mph 1001.3mb 47f 57f
3:18 26 32 mph 1001.3mb 47f 57f
3:06 22 31 mph 1001.7mb 47f 56f
3:00 28 37 mph 1001.4mb 47f 57f
2:54 23 34 mph 1001.4mb 47f 56f
2:48 28 39 mph 1001.5mb 48f 56f
2:42 21 30 mph 1001.4mb 48f 56f
2:36 24 36 mph 1001.2mb 48f 56f
2:30 23 32 mph 1001.2mb 48f 56f
2:24 21 33 mph 1001mb 48f 56f
2:18 26 34 mph 1000.7mb 48f 56f
2:12 24 31 mph 1000.9mb 48f 56f
2:06 24 33 mph 1001mb 48f 56f
2:00 24 32 mph 1001mb 49f 56f
1:54 21 31 mph 1000.9mb 49f 56f
1:48 22 26 mph 1000.9mb 48f 56f
1:42 21 28 mph 1001.2mb 47f 56f
1:36 18 26 mph 1001.2mb 47f 56f
1:30 18 24 mph 1001.1mb 47f 56f
1:24 20 28 mph 1001.2mb 47f 56f
1:18 17 24 mph 1001.3mb 47f 56f
1:12 17 24 mph 1001.4mb 47f 56f
1:06 16 25 mph 1001.6mb 47f 56f
1:00 15 23 mph 1001.5mb 47f 56f
12:54 17 30 mph 1001.6mb 47f 56f
12:48 14 24 mph 1001.7mb 47f 56f
12:42 14 21 mph 1001.4mb 47f 56f
12:36 16 23 mph 1001.1mb 47f 56f
12:30 13 25 mph 1001.2mb 47f 56f
12:24 18 25 mph 1001.3mb 47f 56f
12:18 13 20 mph 1001.5mb 47f 56f
12:12 17 24 mph 1001.7mb 47f 56f
12:06 14 22 mph 1001.7mb 47f 56f
12:00 16 22 mph 1002mb 47f 56f
11:54 14 21 mph 1002.1mb 47f 55f
11:48 14 21 mph 1002.2mb 47f 56f
11:42 14 25 mph 1002.1mb 47f 56f
11:36 11 20 mph 1002.2mb 47f 56f
11:30 10 22 mph 1002.4mb 47f 56f
11:24 9 15 mph 1002.4mb 47f 56f
11:18 9 14 mph 1002.3mb 47f 56f
11:12 6 10 mph 1002.4mb 47f 55f
11:06 8 17 mph 1002.4mb 47f 55f
11:00 8 11 mph 1002.6mb 46f 55f
10:54 8 14 mph 1002.8mb 46f 54f
10:48 10 14 mph 1002.9mb 46f 55f
10:42 7 13 mph 1003.1mb 46f 55f
10:36 6 14 mph 1003.2mb 46f 55f
10:30 13 17 mph 1003.1mb 46f 56f
10:24 9 13 mph 1003.1mb 46f 56f
10:18 8 16 mph 1003mb 46f 56f
10:12 8 14 mph 1002.9mb 46f 55f
10:06 6 16 mph 1003mb 46f 55f
10:00 8 20 mph 1003mb 46f 55f
9:54 16 21 mph 1003.1mb 46f 56f
9:48 6 11 mph 1003.1mb 46f 53f
9:42 8 14 mph 1003.1mb 46f 51f
9:36 10 14 mph 1002.9mb 46f 48f
9:30 6 10 mph 1002.8mb 46f 48f
9:24 5 14 mph 1002.8mb 46f 48f
9:18 7 10 mph 1002.7mb 46f 47f
9:12 7 10 mph 1002.7mb 46f 47f
9:06 7 11 mph 1002.7mb 46f 47f
9:00 6 14 mph 1002.8mb 46f 47f
8:54 9 14 mph 1002.5mb 46f 47f
8:48 5 11 mph 1002.4mb 46f 47f
8:42 10 16 mph 1002.5mb 46f 47f
8:36 7 14 mph 1002.4mb 46f 47f
8:30 7 15 mph 1002.3mb 46f 47f
8:24 3 11 mph 1002.5mb 46f 47f
8:18 5 15 mph 1002.4mb 46f 47f
8:12 9 16 mph 1002.3mb 46f 47f
8:06 5 14 mph 1002.5mb 46f 47f
8:00 7 13 mph 1002.6mb 46f 47f
7:54 9 11 mph 1002.6mb 46f 47f
7:48 9 14 mph 1002.7mb 46f 47f
7:42 7 13 mph 1002.8mb 46f 47f
7:36 8 13 mph 1002.8mb 46f 47f
7:30 7 16 mph 1002.9mb 46f 47f
7:24 9 14 mph 1002.9mb 46f 47f
7:18 8 11 mph 1003mb 46f 48f
7:12 6 8 mph 1003.1mb 46f 47f
7:06 6 8 mph 1003.2mb 46f 47f
7:00 7 8 mph 1003.1mb 46f 47f
6:54 6 8 mph 1003mb 46f 47f
6:48 3 8 mph 1003mb 46f 47f
6:42 6 9 mph 1003.1mb 46f 47f
6:36 3 8 mph 1003.2mb 46f 47f
6:30 1 6 mph 1003.3mb 46f 47f
6:24 2 6 mph 1003.5mb 46f 47f
6:18  -  7 mph 1003.5mb 46f 46f
6:12 5 6 mph 1003.4mb 46f 46f
6:06 3 7 mph 1003.5mb 46f 46f
6:00 3 8 mph 1003.6mb 47f 46f
5:54 5 6 mph 1003.7mb 47f 47f
5:48 5 7 mph 1003.5mb 47f 47f
5:42 2 6 mph 1003.5mb 47f 47f
5:36 2 9 mph 1003.5mb 47f 47f
5:30 3 9 mph 1003.6mb 47f 47f
5:24 3 6 mph 1003.8mb 47f 47f
5:18 6 9 mph 1004mb 47f 47f
5:12 3 7 mph 1004.1mb 47f 47f
5:06 2 5 mph 1003.9mb 47f 47f
5:00 3 10 mph 1003.8mb 47f 47f
4:54 5 9 mph 1003.6mb 47f 47f
4:48 2 8 mph 1003.7mb 47f 47f
4:42 6 11 mph 1003.8mb 47f 47f
4:36 3 8 mph 1004.1mb 47f 47f
4:30 5 9 mph 1004.3mb 46f 48f
4:24 3 8 mph 1004.4mb 46f 47f
4:18 3 8 mph 1004.7mb 46f 48f
4:12 5 9 mph 1005mb 46f 48f
4:06 5 8 mph 1005.3mb 46f 47f
4:00 6 7 mph 1005.8mb 46f 47f
3:54 5 8 mph 1006.2mb 46f 47f
3:48 5 9 mph 1006.2mb 46f 47f
3:42 3 7 mph 1006.3mb 46f 47f
3:36 2 3 mph 1006.5mb 46f 46f
3:30 2 5 mph 1006.9mb 46f 47f
3:24 2 6 mph 1007.2mb 46f 47f
3:18 2 3 mph 1007.3mb 46f 46f
3:12 2 6 mph 1007.3mb 46f 47f
3:06 3 5 mph 1007.5mb 46f 46f
3:00 3 5 mph 1007.6mb 46f 46f
2:54 3 6 mph 1007.6mb 46f 46f
2:48 5 7 mph 1007.7mb 46f 46f
2:42 2 3 mph 1007.7mb 46f 46f
2:36 2 9 mph 1007.7mb 46f 46f
2:30 5 8 mph 1007.7mb 46f 47f
2:24 3 7 mph 1007.6mb 46f 47f
2:18 3 7 mph 1007.5mb 46f 47f
2:12 2 6 mph 1007.7mb 46f 46f
2:06 3 8 mph 1007.7mb 46f 47f
2:00 2 7 mph 1007.9mb 46f 46f
1:54 2 6 mph 1007.9mb 46f 46f
1:48 2 6 mph 1008mb 47f 46f
1:42 2 5 mph 1008.2mb 46f 46f
1:36 2 5 mph 1008.4mb 46f 46f
1:30 2 6 mph 1008.3mb 46f 46f
1:24 3 7 mph 1008.4mb 46f 46f
1:18 3 5 mph 1008.5mb 46f 46f
1:12 2 3 mph 1008.7mb 46f 46f
1:06 2 6 mph 1008.8mb 46f 46f
1:00 2 5 mph 1009mb 46f 46f
12:54 2 3 mph 1009.2mb 47f 46f
12:48 1 3 mph 1009.4mb 47f 46f
12:42 1 3 mph 1009.6mb 47f 46f
12:36 2 3 mph 1009.7mb 47f 46f
12:30 2 3 mph 1009.9mb 47f 46f
12:24 2 3 mph 1010mb 47f 46f
12:18 2 3 mph 1010.2mb 47f 46f
12:12 2
mph
1010.3mb 47f 46f
12:06 1 3 mph 1010.5mb 47f 46f
12:00  -  5 mph 1010.6mb 47f 46f
Sex 12/19 11:54 2 5 mph 1010.5mb 47f 46f
11:48 1 3 mph 1010.5mb 47f 46f
11:42 2 3 mph 1010.5mb 47f 46f
11:36  -  6 mph 1010.6mb 47f 46f
11:30 2 5 mph 1010.6mb 47f 46f
11:24 1 6 mph 1010.7mb 47f 46f
11:18 5 6 mph 1010.9mb 46f 47f
11:12 3 8 mph 1011mb 46f 47f
11:06 5 10 mph 1011mb 46f 47f
11:00 5 11 mph 1011.2mb 46f 47f
10:54 6 8 mph 1011.3mb 46f 47f
10:48 3 8 mph 1011.3mb 46f 47f
10:42 6 11 mph 1011.3mb 46f 47f
10:36 6 14 mph 1011.4mb 46f 48f
10:30 8 13 mph 1011.4mb 46f 48f
10:24 7 11 mph 1011.5mb 46f 48f
10:18 6 10 mph 1011.5mb 46f 48f
10:12 6 13 mph 1011.4mb 46f 49f
10:06 8 16 mph 1011.4mb 46f 49f
10:00 7 11 mph 1011.4mb 46f 49f
9:54 7 11 mph 1011.5mb 46f 48f
9:48 8 13 mph 1011.6mb 46f 48f
9:42 6 7 mph 1011.6mb 46f 48f
9:36 1 3 mph 1011.6mb 46f 47f
9:30  -  5 mph 1011.6mb 46f 47f
9:24 1 2 mph 1011.6mb 46f 46f
9:18 2 3 mph 1011.6mb 46f 47f
9:12  -  3 mph 1011.7mb 46f 46f
9:06 3 6 mph 1011.6mb 46f 47f
9:00 3 5 mph 1011.8mb 46f 47f
8:54 3 7 mph 1011.8mb 46f 47f
8:48 3 10 mph 1012mb 46f 47f
8:42 6 8 mph 1012.3mb 46f 47f
8:36 5 6 mph 1012.4mb 46f 46f
8:30 3 6 mph 1012.5mb 46f 46f
8:24 3 6 mph 1012.6mb 46f 47f
8:18 3 8 mph 1012.6mb 46f 46f
8:12 2 5 mph 1012.8mb 46f 47f
8:06 2 5 mph 1012.9mb 46f 47f
8:00 1 5 mph 1013.1mb 46f 47f
7:54 1 5 mph 1013.3mb 46f 46f
7:48  -  5 mph 1013.4mb 46f 46f
7:42 1 3 mph 1013.5mb 46f 46f
7:36 1 3 mph 1013.4mb 46f 46f
7:30 3 5 mph 1013.5mb 46f 46f
7:24 1 6 mph 1013.5mb 46f 46f
7:18 2 5 mph 1013.5mb 46f 46f
7:12 1 3 mph 1013.5mb 46f 46f
7:06 3 6 mph 1013.6mb 46f 46f
7:00 2 6 mph 1013.7mb 47f 46f
6:54  -  2 mph 1013.8mb 47f 46f
6:48  -  2 mph 1013.9mb 47f 46f
6:42  -  2 mph 1014mb 47f 46f
6:36  -  3 mph 1014.1mb 47f 46f
6:30 2 5 mph 1014mb 47f 46f
6:24 2 6 mph 1014.1mb 47f 46f
6:18 3 6 mph 1014.2mb 47f 46f
6:12 1 6 mph 1014.2mb 47f 46f
6:06 2 8 mph 1014.3mb 47f 47f
6:00 3 7 mph 1014.3mb 47f 47f
5:54 3 6 mph 1014.4mb 47f 47f
5:48 1 3 mph 1014.4mb 47f 46f
5:42 1 6 mph 1014.4mb 47f 46f
5:36 2 3 mph 1014.4mb 47f 46f
5:30 2
mph
1014.4mb 47f 46f
5:24 1 3 mph 1014.5mb 47f 46f
5:18 1 5 mph 1014.5mb 47f 46f
5:12 2 5 mph 1014.5mb 47f 47f
5:06  -  3 mph 1014.5mb 47f 46f
5:00 1 3 mph 1014.5mb 47f 46f
4:54 1 3 mph 1014.5mb 47f 46f
4:48 1 3 mph 1014.5mb 47f 47f
4:42 2 3 mph 1014.4mb 47f 47f
4:36 1 2 mph 1014.3mb 47f 47f
4:30 1 2 mph 1014.2mb 47f 47f
4:24 2 3 mph 1014.1mb 47f 47f
4:18 1 7 mph 1014.1mb 47f 47f
4:12 1 3 mph 1014.1mb 47f 47f
4:06 1 3 mph 1014.1mb 47f 48f
4:00 2 10 mph 1014.1mb 47f 48f
3:54 5 8 mph 1014.3mb 47f 49f
3:48 5 7 mph 1014.3mb 47f 49f
3:42 6 9 mph 1014.4mb 47f 49f
3:36 7 9 mph 1014.5mb 47f 49f
3:30 6 10 mph 1014.5mb 47f 49f
3:24 7 10 mph 1014.5mb 47f 49f
3:18 7 9 mph 1014.6mb 47f 49f
3:12 6 10 mph 1014.6mb 47f 49f
3:06 5 10 mph 1014.7mb 47f 49f
3:00 6 10 mph 1014.7mb 47f 49f
2:54 7 10 mph 1014.8mb 47f 49f
2:48 6 10 mph 1014.8mb 47f 49f
2:42 5 10 mph 1014.8mb 47f 49f
2:36 7 10 mph 1014.7mb 47f 49f
2:30 7 10 mph 1014.7mb 47f 49f
2:24 7 13 mph 1014.6mb 47f 49f
2:12 8 13 mph 1014.5mb 47f 50f
2:06 5 14 mph 1014.6mb 47f 50f
2:00 6 11 mph 1014.6mb 47f 50f
1:54 7 11 mph 1014.7mb 47f 50f
1:48 7 10 mph 1014.8mb 47f 50f
1:42 7 10 mph 1014.8mb 47f 50f
1:36 6 13 mph 1014.9mb 47f 50f
1:30 7 9 mph 1014.9mb 47f 49f
1:24 7 10 mph 1014.8mb 47f 49f
1:18 6 11 mph 1014.8mb 47f 50f
1:12 6 9 mph 1014.8mb 47f 49f
1:06 7 13 mph 1014.9mb 47f 49f
1:00 8 14 mph 1015mb 47f 49f
12:54 7 10 mph 1014.9mb 47f 49f
12:48 8 15 mph 1015mb 47f 49f
12:42 8 14 mph 1015.1mb 47f 49f
12:36 9 13 mph 1015.2mb 47f 49f
12:30 9 13 mph 1015.2mb 47f 49f
12:24 9 13 mph 1015.2mb 47f 49f
12:18 7 13 mph 1015.2mb 47f 49f
12:06 8 10 mph 1015.2mb 47f 50f
11:54 10 15 mph 1015.3mb 47f 50f
11:48 7 14 mph 1015.4mb 47f 50f
11:42 8 14 mph 1015.3mb 47f 50f
11:36 6 8 mph 1015.4mb 47f 50f
11:30 7 9 mph 1015.4mb 47f 50f
11:24 7 10 mph 1015.3mb 47f 49f
11:18 7 11 mph 1015.3mb 47f 49f
11:12 7 10 mph 1015.3mb 47f 49f
11:00 5 8 mph 1015.4mb 47f 49f
10:54 7 10 mph 1015.3mb 47f 49f
10:48 6 9 mph 1015.3mb 47f 49f
10:42 7 9 mph 1015.2mb 47f 49f
10:36 7 9 mph 1015.1mb 47f 49f
10:30 7 9 mph 1015.1mb 47f 49f
10:24 8 10 mph 1015mb 47f 48f
10:18 7 10 mph 1014.9mb 47f 48f
10:12 7 13 mph 1014.7mb 47f 48f
10:06 8 11 mph 1014.6mb 47f 48f
10:00 7 10 mph 1014.6mb 47f 48f
9:54 9 11 mph 1014.5mb 47f 48f
9:48 7 10 mph 1014.4mb 47f 47f
9:42 8 11 mph 1014.4mb 47f 47f
9:36 8 11 mph 1014.3mb 47f 47f
9:30 8 11 mph 1014.3mb 47f 47f
9:24 9 11 mph 1014.3mb 47f 47f
9:18 9 11 mph 1014.2mb 47f 47f
9:12 9 11 mph 1013.9mb 47f 47f
9:06 8 11 mph 1013.9mb 46f 47f
9:00 10 13 mph 1013.8mb 46f 47f
8:54 8 11 mph 1013.7mb 46f 46f
8:48 8 10 mph 1013.6mb 46f 46f
8:42 7 9 mph 1013.6mb 46f 46f
8:36 7 10 mph 1013.5mb 46f 46f
8:30 8 10 mph 1013.4mb 46f 46f
8:24 7 10 mph 1013.4mb 46f 46f
8:18 7 9 mph 1013.5mb 46f 46f
8:12 7 9 mph 1013.4mb 46f 46f
8:06 7 9 mph 1013.4mb 46f 46f
8:00 7 10 mph 1013.3mb 46f 46f
7:54 7 10 mph 1013.2mb 46f 46f
7:48 8 9 mph 1013.1mb 46f 46f
7:42 8 10 mph 1013mb 46f 46f
7:36 7 9 mph 1013mb 46f 46f
7:30 9 10 mph 1012.8mb 47f 46f
7:24 7 11 mph 1012.7mb 47f 46f
7:18 10 14 mph 1012.6mb 47f 47f
7:12 9 13 mph 1012.4mb 47f 47f
7:06 10 13 mph 1012.4mb 47f 47f
7:00 9 13 mph 1012.4mb 47f 47f
6:54 9 13 mph 1012.4mb 47f 47f
6:48 9 10 mph 1012.3mb 47f 47f
6:42 8 10 mph 1012.3mb 47f 47f
6:36 7 9 mph 1012.1mb 47f 47f
6:30 8 9 mph 1011.9mb 47f 48f
6:24 6 10 mph 1011.8mb 47f 48f
6:18 8 10 mph 1011.9mb 47f 48f
6:12 8 10 mph 1011.8mb 47f 48f
6:06 3 9 mph 1011.8mb 47f 48f
6:00 7 9 mph 1011.7mb 47f 48f
5:54 5 6 mph 1011.7mb 47f 48f
5:48 6 8 mph 1011.6mb 47f 47f
5:42 6 8 mph 1011.5mb 47f 48f
5:36 5 6 mph 1011.5mb 47f 48f
5:30 5 6 mph 1011.6mb 47f 48f
5:24 5 7 mph 1011.6mb 47f 47f
5:18 5 7 mph 1011.4mb 47f 47f
5:12 6 8 mph 1011.3mb 47f 47f
5:06 7 8 mph 1011.2mb 47f 47f
5:00 7 8 mph 1011.1mb 47f 47f
4:54 7 8 mph 1011.1mb 47f 47f
4:48 5 8 mph 1011.1mb 47f 47f
4:42 6 7 mph 1011.1mb 47f 47f
4:36 5 7 mph 1011mb 47f 47f
4:30 5 9 mph 1010.9mb 47f 47f
4:24 8 10 mph 1010.9mb 47f 47f
4:18 7 9 mph 1011mb 47f 47f
4:12 6 9 mph 1011.1mb 47f 47f
4:06 7 10 mph 1011mb 47f 47f
4:00 6 8 mph 1011mb 47f 47f
3:54 6 8 mph 1011mb 47f 47f
3:48 6 9 mph 1011mb 47f 47f
3:42 8 10 mph 1011mb 47f 47f
3:36 6 9 mph 1011mb 47f 47f
3:30 6 9 mph 1011.1mb 47f 47f
3:24 7 9 mph 1011mb 47f 47f
3:18 8 11 mph 1011.1mb 47f 47f
3:12 8 9 mph 1011.1mb 47f 47f
3:06 7 9 mph 1011.1mb 47f 47f
3:00 8 16 mph 1011.1mb 47f 47f
2:54 10 13 mph 1011mb 47f 47f
2:48 8 13 mph 1010.9mb 47f 47f
2:42 8 10 mph 1010.9mb 47f 47f
2:36 8 10 mph 1010.9mb 47f 47f
2:30 7 9 mph 1010.9mb 47f 47f
2:24 7 9 mph 1010.9mb 47f 47f
2:18 8 10 mph 1010.8mb 47f 47f
2:12 9 11 mph 1010.8mb 47f 47f
2:06 8 10 mph 1010.7mb 47f 47f
2:00 8 10 mph 1010.5mb 47f 47f
1:54 9 13 mph 1010.5mb 47f 47f
1:48 8 13 mph 1010.6mb 47f 47f
1:42 7 9 mph 1010.5mb 47f 47f
1:36 8 9 mph 1010.5mb 47f 47f
1:30 8 11 mph 1010.4mb 47f 47f
1:24 8 10 mph 1010.4mb 47f 48f
1:18 8 10 mph 1010.3mb 47f 48f
1:12 7 9 mph 1010.2mb 47f 48f
1:06 7 9 mph 1010.2mb 47f 48f
1:00 8 13 mph 1010.1mb 47f 48f
12:54 8 10 mph 1010mb 47f 48f
12:48 8 10 mph 1009.9mb 47f 48f
12:42 7 8 mph 1010mb 47f 47f
12:36 7 9 mph 1009.9mb 47f 47f
12:30 7 11 mph 1009.9mb 47f 47f
12:24 9 14 mph 1009.9mb 47f 48f
12:18 9 13 mph 1010mb 47f 48f
12:12 9 13 mph 1009.8mb 47f 48f
12:06 8 13 mph 1009.9mb 47f 48f
12:00 9 13 mph 1009.8mb 47f 48f
Qui 12/18 11:54 8 11 mph 1009.6mb 47f 48f
11:48 9 13 mph 1009.5mb 47f 48f
11:42 9 13 mph 1009.3mb 47f 48f
11:36 9 13 mph 1009.2mb 47f 48f
11:30 8 10 mph 1009.1mb 47f 48f
11:24 9 13 mph 1009.1mb 47f 49f
11:18 9 13 mph 1009.2mb 47f 49f
11:12 9 16 mph 1009.2mb 47f 49f
11:06 9 14 mph 1009.2mb 47f 49f
11:00 10 14 mph 1009.1mb 47f 49f
10:54 9 14 mph 1009.1mb 47f 49f
10:48 9 14 mph 1009.1mb 47f 49f
10:42 9 15 mph 1009.1mb 47f 49f
10:36 10 14 mph 1009mb 47f 49f
10:30 8 13 mph 1008.7mb 47f 49f
10:24 8 13 mph 1008.6mb 47f 49f
10:18 9 13 mph 1008.6mb 47f 49f
10:12 10 13 mph 1008.7mb 47f 49f
10:06 9 15 mph 1008.6mb 47f 49f
10:00 13 16 mph 1008.4mb 47f 49f
9:54 11 16 mph 1008.2mb 47f 49f
9:48 11 16 mph 1008.1mb 47f 49f
9:42 13 16 mph 1008.2mb 47f 49f
9:36 11 17 mph 1008.3mb 47f 49f
9:30 13 20 mph 1008.4mb 47f 50f
9:24 10 14 mph 1008.6mb 47f 49f
9:18 8 13 mph 1008.6mb 46f 49f
9:12 8 11 mph 1008.6mb 46f 50f
9:06 7 9 mph 1008.3mb 46f 50f
9:00 6 9 mph 1008.5mb 46f 50f
8:54 8 11 mph 1008.3mb 46f 50f
8:48 7 10 mph 1008.2mb 46f 50f
8:42 7 9 mph 1008.3mb 47f 50f
8:36 7 10 mph 1008.1mb 47f 50f
8:30 8 11 mph 1008.2mb 47f 50f
8:24 9 13 mph 1008.2mb 47f 50f
8:18 9 11 mph 1008mb 47f 50f
8:12 9 13 mph 1008mb 47f 50f
8:06 8 14 mph 1008mb 47f 51f
8:00 11 14 mph 1007.9mb 47f 51f
7:54 10 16 mph 1007.8mb 47f 51f
7:48 11 16 mph 1007.7mb 47f 51f
7:42 10 14 mph 1007.6mb 47f 50f
7:36 3 11 mph 1007.6mb 47f 50f
7:30 6 14 mph 1007.2mb 47f 51f
7:24 9 14 mph 1006.7mb 47f 51f
7:18 3 6 mph 1006.6mb 47f 50f
7:12 2 5 mph 1006.6mb 47f 50f
7:06 2 5 mph 1006.6mb 47f 50f
7:00 3 6 mph 1006.4mb 47f 50f
6:54 2 6 mph 1006.4mb 47f 50f
6:48 2 6 mph 1006.4mb 47f 49f
6:42 3 7 mph 1006.5mb 47f 49f
6:36 2 6 mph 1006.4mb 47f 49f
6:30 3 7 mph 1006.4mb 47f 49f
6:24 5 7 mph 1006.3mb 47f 49f
6:18 5 7 mph 1006.4mb 47f 49f
6:12 2 7 mph 1006.5mb 47f 49f
6:06 5 8 mph 1006.6mb 47f 49f
6:00 2 8 mph 1006.5mb 47f 49f
5:54 3 6 mph 1006.6mb 47f 49f
5:48 3 7 mph 1006.7mb 47f 49f
5:42 2 6 mph 1006.9mb 47f 49f
5:36 5 8 mph 1007mb 47f 49f
5:30 3 7 mph 1007.1mb 47f 49f
5:24 3 5 mph 1007mb 47f 49f
5:18 2 6 mph 1007.1mb 47f 49f
5:12 3 6 mph 1007.1mb 47f 49f
5:06 3 6 mph 1007.3mb 47f 49f
5:00 2 7 mph 1007.4mb 47f 49f
4:54 6 7 mph 1007.5mb 47f 49f
4:48 1 7 mph 1007.6mb 47f 49f
4:42 3 6 mph 1007.6mb 48f 49f
4:36 2 7 mph 1007.7mb 48f 49f
4:30 2 6 mph 1007.7mb 48f 49f
4:24 5 9 mph 1007.7mb 48f 49f
4:18 6 9 mph 1007.8mb 48f 49f
4:12 3 7 mph 1007.9mb 48f 50f
4:06 5 7 mph 1008mb 48f 51f
4:00 6 9 mph 1008mb 48f 52f
3:54 8 13 mph 1008mb 48f 53f
3:48 7 11 mph 1008.2mb 48f 53f
3:36 6 11 mph 1008.1mb 48f 53f
3:30 9 13 mph 1008mb 48f 53f
3:24 8 11 mph 1008.1mb 47f 53f
3:18 3 7 mph 1008.2mb 47f 51f
3:12 2 7 mph 1008.2mb 47f 49f
3:06 3 6 mph 1008.2mb 47f 50f
3:00 3 9 mph 1008.2mb 47f 49f
2:54 5 10 mph 1008.3mb 47f 50f
2:48 2 8 mph 1008.3mb 47f 50f
2:42 2 6 mph 1008.5mb 47f 49f
2:36 2 8 mph 1008.6mb 47f 49f
2:30 3 9 mph 1008.8mb 47f 49f
2:24 5 8 mph 1008.8mb 47f 49f
2:18 3 6 mph 1008.9mb 47f 49f
2:12 1 8 mph 1009mb 47f 49f
2:06 5 11 mph 1009.2mb 47f 49f
2:00 3 17 mph 1009.1mb 47f 49f
1:54 3 9 mph 1009mb 47f 49f
1:48 5 11 mph 1009mb 47f 49f
1:42 6 11 mph 1009.1mb 47f 49f
1:36 5 10 mph 1009.4mb 47f 50f
1:30 2 9 mph 1009.4mb 47f 49f
1:24 3 8 mph 1009.5mb 47f 49f
1:18 2 6 mph 1009.4mb 47f 49f
1:12 1 5 mph 1009.6mb 47f 50f
1:06 2 8 mph 1009.8mb 47f 49f
1:00 2 6 mph 1009.8mb 47f 49f
12:54 3 7 mph 1009.9mb 47f 49f
12:48 2 5 mph 1010.1mb 47f 49f
12:42 2 5 mph 1010.1mb 47f 49f
12:36 2 6 mph 1010.1mb 47f 49f
12:30 2 7 mph 1010.1mb 47f 49f
12:24 3 6 mph 1010mb 47f 49f
12:18 3 6 mph 1010.1mb 47f 49f
12:06 3 7 mph 1010.4mb 47f 49f
12:00 1 8 mph 1010.5mb 47f 49f
11:54 6 7 mph 1010.5mb 47f 49f